Abeytas, New Mexico
Current Conditions -  °F | °C
As of 4:35 PM on Monday 20 Oct 2014 (Local Time) from KE80 Reporting Station
Thunderstorm Thunderstorm  
Wind Chill: 61°   Ceiling: 7000
Heat Index: 61°   Visibility: 10mi
Dew Point: 48°   Wind: 9mph
Humidity: 63%   Direction: 150°SSE
Pressure: 30.14"   Gusts: NA
Location:  34.4828°N, 106.804°W
Report Text: KE80 202235Z AUTO 15008KT 10SM VCTS SCT050 BKN070 OVC085 16/09 A3014 RMK AO2 LTG DSNT W T01600089
Loading
Personal Weather Stations






























Interactive Weather Map
Tropical Storm Tracking
New forecast layout! Learn more

10-Day Weather Forecast

Advertisements
Track Severe Weather on mobile